Athens, Illinois
Current Conditions -  °F | °C
As of 3:52 AM on Monday 22 Dec 2014 (Local Time) from KSPI Reporting Station
Overcast Overcast  
Wind Chill: 29°   Ceiling: 4900
Heat Index: 37°   Visibility: 9mi
Dew Point: 31°   Wind: 12mph
Humidity: 79%   Direction: 120°ESE
Pressure: 29.88"   Gusts: NA
Location:  39.96°N, 89.72°W
Report Text: KSPI 220952Z AUTO 12010KT 9SM OVC049 03/M01 A2988 RMK AO2 RAE0853 SLP122 P0000 T00281006
Loading
Personal Weather Stations






























Interactive Weather Map New forecast layout! Learn more

10-Day Weather Forecast

Advertisements
Track Severe Weather on mobile